Hauptseite
METAR-TAF:

METAR-TAF

Flughäfen :

Sønderborg, Dänemark

Flughafen Sønderborg

Breite: 54-58N, Länge: 009-47E, Höhe: 7 m

Beobachtung

Neuester Wetterbericht von vor 32 Minuten, um 13:21 UTC
Wind 15 kt aus Ost
Temperatur 0°C
Luftfeuchtigkeit 59%
Luftdruck 1034 hPa
Sichtweite 10 km oder mehr
Aufgelockert bewölkt in der Höhe von 3200 ft

METAR: EKSB 241321Z 08015KT 9999 SCT032 00/M07 Q1034

Zeit: 14:53 (13:53 UTC)

Prognose

Neuester Wetterbericht von vor 2 Stunden und 5 Minuten, um 11:48 UTC
Gültige Prognose vom 24 um 12 UTC bis 24 um 17 UTC
Wind 15 kt aus Ost
Sichtweite 10 km oder mehr
Aufgelockert bewölkt in der Höhe von 3000 ft

TAF: EKSB 241148Z 2412/2417 09015KT 9999 SCT030

Wetterbeobachtungen und Prognosen von mehr als 4000 Flughäfen (METAR und TAF Bericht).

Die verfügbaren Stationen werden durch gelbe und rote Markierungen auf der Karte dargestellt.

Führen Sie die Maus auf sie, um den Namen der Station zu sehen.

Darauf klicken, um die Beobachtung von Wetterbeobachtungen und Prognosen zu sehen.

Um die Karte zu ändern : klicken Sie auf den grünen Tasten mit einem schwarzen Kreuz Zum Vergrößern, auf den grünen Button mit einem Gedankenstrich zu verkleinern, oder auf die grünen Pfeile für benachbarte Karten.


METAR-TAF: